createdAt,value
2019-04-21T00:02:23.896Z,10.40
2019-04-21T00:05:12.950Z,9.90
2019-04-21T00:10:18.408Z,9.30
2019-04-21T00:12:46.127Z,9.00
2019-04-21T00:17:36.917Z,9.50
2019-04-21T00:28:12.218Z,10.90
2019-04-21T00:30:44.341Z,11.10
2019-04-21T00:35:39.545Z,11.40
2019-04-21T00:38:25.037Z,11.50
2019-04-21T00:40:55.437Z,11.70
2019-04-21T00:43:25.273Z,11.70
2019-04-21T00:45:51.920Z,11.80
2019-04-21T00:53:52.208Z,12.00
2019-04-21T00:56:15.642Z,12.00
2019-04-21T01:03:57.893Z,12.10
2019-04-21T01:06:34.097Z,12.10
2019-04-21T01:08:59.533Z,12.10
2019-04-21T01:11:44.871Z,12.00
2019-04-21T01:14:22.260Z,12.00
2019-04-21T01:16:56.164Z,12.00
2019-04-21T01:19:15.746Z,12.00
2019-04-21T01:21:29.633Z,12.00
2019-04-21T01:24:10.457Z,11.90
2019-04-21T01:29:41.770Z,11.70
2019-04-21T01:32:20.525Z,11.60
2019-04-21T01:34:45.411Z,11.50
2019-04-21T01:37:10.200Z,11.50
2019-04-21T01:39:46.942Z,11.40
2019-04-21T01:42:18.336Z,11.40
2019-04-21T01:47:17.407Z,11.30
2019-04-21T01:57:48.096Z,10.90
2019-04-21T02:00:23.473Z,10.90
2019-04-21T02:08:05.097Z,10.70
2019-04-21T02:15:52.771Z,10.80
2019-04-21T02:18:22.079Z,10.80
2019-04-21T02:20:48.309Z,10.80
2019-04-21T02:23:38.184Z,10.70
2019-04-21T02:26:04.652Z,10.70
2019-04-21T02:28:44.086Z,10.60
2019-04-21T02:31:20.459Z,10.60
2019-04-21T02:41:45.684Z,10.40
2019-04-21T02:44:10.107Z,10.30
2019-04-21T02:54:48.044Z,9.30
2019-04-21T02:57:04.813Z,9.00
2019-04-21T03:02:25.694Z,8.50
2019-04-21T03:07:50.247Z,8.40
2019-04-21T03:10:09.468Z,8.20
2019-04-21T03:12:34.601Z,8.00
2019-04-21T03:17:48.763Z,7.80
2019-04-21T03:20:17.429Z,7.70
2019-04-21T03:22:58.194Z,7.40
2019-04-21T03:38:16.539Z,6.70
2019-04-21T03:41:01.000Z,6.60
2019-04-21T03:43:23.197Z,6.60
2019-04-21T03:45:49.081Z,6.60
2019-04-21T03:48:32.019Z,6.40
2019-04-21T03:50:59.458Z,6.40
2019-04-21T03:53:46.323Z,6.40
2019-04-21T03:56:14.803Z,6.40
2019-04-21T03:58:54.224Z,6.40
2019-04-21T04:09:31.358Z,6.30
2019-04-21T04:14:26.672Z,6.40
2019-04-21T04:17:06.467Z,6.40
2019-04-21T04:19:26.271Z,6.30
2019-04-21T04:24:34.213Z,6.30
2019-04-21T04:42:45.796Z,8.90
2019-04-21T04:45:26.518Z,9.60
2019-04-21T04:47:51.236Z,9.80
2019-04-21T04:52:51.269Z,10.30
2019-04-21T04:55:42.159Z,10.40
2019-04-21T04:58:11.181Z,10.50
2019-04-21T05:03:37.100Z,10.70
2019-04-21T05:09:02.920Z,10.80
2019-04-21T05:11:40.310Z,10.90
2019-04-21T05:14:06.309Z,11.00
2019-04-21T05:19:11.381Z,11.20
2019-04-21T05:24:01.242Z,11.30
2019-04-21T05:26:27.492Z,11.40
2019-04-21T05:29:02.162Z,11.50
2019-04-21T05:31:58.393Z,11.50
2019-04-21T05:37:14.146Z,11.80
2019-04-21T05:40:00.544Z,11.90
2019-04-21T05:45:25.462Z,12.20
2019-04-21T05:48:14.285Z,12.30
2019-04-21T05:50:27.529Z,12.40
2019-04-21T05:53:26.698Z,12.50
2019-04-21T05:56:02.033Z,12.70
2019-04-21T05:58:28.825Z,13.00
2019-04-21T06:03:36.840Z,13.70
2019-04-21T06:06:20.117Z,14.00
2019-04-21T06:11:28.470Z,14.60
2019-04-21T06:16:36.387Z,15.10
2019-04-21T06:19:05.162Z,15.30
2019-04-21T06:21:39.215Z,15.40
2019-04-21T06:24:17.377Z,15.60
2019-04-21T06:27:08.450Z,15.70
2019-04-21T06:29:30.134Z,15.90
2019-04-21T06:37:39.049Z,16.30
2019-04-21T06:40:06.202Z,16.50
2019-04-21T06:42:14.249Z,16.70
2019-04-21T06:47:36.120Z,17.20
2019-04-21T06:50:18.771Z,17.40
2019-04-21T06:57:41.771Z,17.80
2019-04-21T07:02:51.916Z,18.10
2019-04-21T07:08:07.614Z,18.30
2019-04-21T07:12:57.471Z,18.60
2019-04-21T07:15:41.030Z,18.70
2019-04-21T07:18:05.640Z,19.00
2019-04-21T07:20:36.715Z,19.10
2019-04-21T07:23:16.046Z,19.30
2019-04-21T07:25:45.865Z,19.60
2019-04-21T07:31:03.438Z,20.30
2019-04-21T07:33:49.531Z,20.50
2019-04-21T07:36:01.446Z,20.50
2019-04-21T07:40:59.525Z,21.20
2019-04-21T07:43:30.008Z,21.50
2019-04-21T07:46:10.714Z,21.90
2019-04-21T07:49:01.705Z,22.20
2019-04-21T07:51:50.611Z,22.40
2019-04-21T07:56:39.554Z,22.80
2019-04-21T07:59:46.108Z,22.90
2019-04-21T08:02:10.267Z,23.10
2019-04-21T08:04:56.101Z,23.10
2019-04-21T08:07:14.604Z,23.20
2019-04-21T08:09:46.789Z,23.50
2019-04-21T08:12:14.295Z,23.70
2019-04-21T08:15:01.266Z,23.90
2019-04-21T08:17:30.505Z,24.30
2019-04-21T08:19:53.608Z,24.20
2019-04-21T08:22:44.826Z,24.50
2019-04-21T08:25:09.186Z,23.90
2019-04-21T08:27:51.062Z,23.70
2019-04-21T08:30:21.154Z,23.10
2019-04-21T08:38:01.061Z,23.60
2019-04-21T08:43:02.910Z,23.00
2019-04-21T08:48:19.462Z,23.70
2019-04-21T08:50:58.643Z,24.00
2019-04-21T08:53:25.958Z,24.00
2019-04-21T09:01:23.994Z,24.50
2019-04-21T09:06:52.789Z,25.00
2019-04-21T09:09:03.668Z,24.90
2019-04-21T09:11:37.560Z,25.00
2019-04-21T09:14:28.759Z,25.60
2019-04-21T09:16:53.756Z,26.00
2019-04-21T09:22:32.455Z,26.10
2019-04-21T09:25:01.642Z,26.30
2019-04-21T09:27:30.481Z,26.10
2019-04-21T09:32:49.450Z,26.00
2019-04-21T09:35:18.808Z,26.30
2019-04-21T09:37:56.157Z,26.40
2019-04-21T09:40:30.193Z,26.60
2019-04-21T09:43:11.603Z,25.80
2019-04-21T09:45:40.763Z,26.00
2019-04-21T09:48:18.590Z,26.20
2019-04-21T09:50:45.860Z,26.20
2019-04-21T09:53:26.393Z,26.00
2019-04-21T09:55:54.809Z,25.60
2019-04-21T10:01:09.821Z,26.40
2019-04-21T10:03:43.437Z,26.60
2019-04-21T10:06:11.565Z,26.80
2019-04-21T10:08:58.616Z,26.90
2019-04-21T10:11:48.270Z,26.90
2019-04-21T10:14:19.757Z,26.90
2019-04-21T10:17:15.107Z,27.00
2019-04-21T10:19:46.356Z,27.40
2019-04-21T10:22:28.851Z,27.40
2019-04-21T10:25:00.993Z,27.40
2019-04-21T10:27:31.506Z,26.80
2019-04-21T10:32:32.376Z,27.00
2019-04-21T10:35:03.266Z,26.90
2019-04-21T10:37:45.480Z,27.20
2019-04-21T10:40:09.329Z,27.60
2019-04-21T10:42:40.652Z,27.80
2019-04-21T10:45:12.764Z,28.00
2019-04-21T10:47:43.123Z,27.70
2019-04-21T10:50:18.267Z,27.90
2019-04-21T10:52:59.122Z,28.50
2019-04-21T10:55:53.262Z,28.50
2019-04-21T10:58:24.447Z,28.50
2019-04-21T11:01:18.848Z,29.00
2019-04-21T11:04:00.631Z,28.30
2019-04-21T11:06:36.936Z,28.30
2019-04-21T11:11:44.579Z,27.70
2019-04-21T11:14:13.477Z,27.80
2019-04-21T11:16:47.508Z,28.20
2019-04-21T11:19:32.783Z,28.40
2019-04-21T11:22:03.071Z,28.30
2019-04-21T11:24:43.036Z,29.20
2019-04-21T11:27:19.221Z,28.80
2019-04-21T11:29:57.962Z,28.90
2019-04-21T11:32:28.066Z,28.70
2019-04-21T11:34:59.124Z,28.80
2019-04-21T11:37:32.228Z,29.50
2019-04-21T11:40:15.829Z,29.40
2019-04-21T11:42:45.995Z,29.30
2019-04-21T11:45:36.538Z,29.50
2019-04-21T11:48:18.596Z,29.80
2019-04-21T11:50:59.232Z,30.00
2019-04-21T11:58:37.234Z,28.80
2019-04-21T12:01:11.565Z,29.10
2019-04-21T12:03:42.814Z,29.60
2019-04-21T12:09:18.849Z,29.80
2019-04-21T12:11:55.228Z,29.40
2019-04-21T12:14:28.450Z,29.00
2019-04-21T12:17:07.927Z,29.50
2019-04-21T12:19:41.089Z,30.40
2019-04-21T12:22:20.195Z,30.10
2019-04-21T12:24:51.190Z,29.90
2019-04-21T12:27:40.068Z,29.80
2019-04-21T12:30:17.660Z,29.90
2019-04-21T12:33:14.020Z,29.80
2019-04-21T12:35:44.233Z,31.00
2019-04-21T12:40:48.655Z,31.20
2019-04-21T12:43:21.023Z,30.40
2019-04-21T12:48:22.198Z,30.20
2019-04-21T12:50:52.260Z,28.90
2019-04-21T12:55:55.808Z,29.50
2019-04-21T12:58:35.332Z,29.40
2019-04-21T13:01:07.119Z,29.00
2019-04-21T13:03:46.182Z,29.00
2019-04-21T13:06:16.293Z,28.70
2019-04-21T13:08:55.700Z,28.10
2019-04-21T13:11:19.204Z,28.00
2019-04-21T13:13:50.158Z,27.70
2019-04-21T13:16:35.410Z,28.30
2019-04-21T13:19:11.619Z,28.50
2019-04-21T13:21:52.052Z,29.20
2019-04-21T13:24:31.813Z,30.40
2019-04-21T13:27:05.715Z,30.70
2019-04-21T13:29:36.453Z,29.90
2019-04-21T13:32:18.819Z,29.20
2019-04-21T13:34:51.063Z,29.90
2019-04-21T13:40:29.388Z,29.50
2019-04-21T13:42:53.186Z,29.20
2019-04-21T13:45:25.924Z,30.30
2019-04-21T13:47:56.711Z,31.10
2019-04-21T13:50:31.357Z,31.10
2019-04-21T13:53:02.691Z,31.90
2019-04-21T13:55:36.766Z,32.30
2019-04-21T13:58:12.477Z,31.70
2019-04-21T14:00:50.385Z,32.20
2019-04-21T14:03:23.403Z,33.20
2019-04-21T14:05:56.314Z,32.90
2019-04-21T14:08:27.488Z,31.90
2019-04-21T14:10:57.644Z,32.20
2019-04-21T14:13:27.658Z,33.50
2019-04-21T14:21:01.080Z,33.90
2019-04-21T14:26:14.216Z,33.10
2019-04-21T14:28:52.162Z,31.90
2019-04-21T14:31:32.379Z,31.20
2019-04-21T14:39:02.918Z,32.90
2019-04-21T14:46:37.388Z,33.70
2019-04-21T14:49:19.441Z,33.20
2019-04-21T14:54:36.476Z,34.20
2019-04-21T14:59:37.302Z,33.20
2019-04-21T15:02:18.009Z,32.70
2019-04-21T15:04:49.293Z,33.00
2019-04-21T15:07:19.418Z,32.90
2019-04-21T15:10:02.582Z,32.50
2019-04-21T15:14:55.983Z,33.50
2019-04-21T15:17:27.518Z,33.10
2019-04-21T15:20:04.094Z,33.00
2019-04-21T15:22:30.467Z,32.70
2019-04-21T15:25:02.836Z,32.70
2019-04-21T15:27:33.026Z,32.70
2019-04-21T15:30:11.333Z,32.40
2019-04-21T15:32:42.240Z,32.40
2019-04-21T15:35:21.412Z,31.90
2019-04-21T15:37:53.720Z,32.30
2019-04-21T15:40:36.300Z,32.40
2019-04-21T15:43:04.810Z,32.90
2019-04-21T15:45:37.047Z,33.50
2019-04-21T15:48:12.049Z,33.30
2019-04-21T15:50:50.331Z,33.20
2019-04-21T15:53:25.830Z,32.40
2019-04-21T15:55:58.989Z,32.50
2019-04-21T15:58:34.728Z,32.70
2019-04-21T16:01:22.769Z,32.60
2019-04-21T16:04:00.558Z,31.60
2019-04-21T16:06:39.790Z,30.20
2019-04-21T16:09:16.143Z,28.30
2019-04-21T16:11:46.010Z,27.00
2019-04-21T16:14:22.978Z,25.30
2019-04-21T16:16:54.082Z,24.40
2019-04-21T16:19:31.309Z,23.70
2019-04-21T16:22:03.059Z,23.20
2019-04-21T16:24:35.555Z,22.80
2019-04-21T16:27:08.501Z,22.50
2019-04-21T16:29:44.166Z,22.20
2019-04-21T16:32:17.352Z,22.00
2019-04-21T16:34:59.008Z,21.60
2019-04-21T16:37:32.878Z,21.10
2019-04-21T16:40:03.434Z,20.80
2019-04-21T16:42:34.180Z,20.50
2019-04-21T16:45:12.393Z,20.20
2019-04-21T16:47:44.133Z,20.10
2019-04-21T16:50:23.454Z,20.10
2019-04-21T16:52:56.235Z,20.10
2019-04-21T16:55:35.248Z,20.00
2019-04-21T16:58:28.751Z,20.00
2019-04-21T17:01:06.933Z,20.00
2019-04-21T17:03:34.566Z,19.90
2019-04-21T17:06:23.026Z,19.90
2019-04-21T17:08:54.540Z,19.80
2019-04-21T17:11:29.467Z,19.90
2019-04-21T17:13:58.155Z,19.80
2019-04-21T17:16:51.387Z,19.80
2019-04-21T17:19:12.771Z,19.80
2019-04-21T17:21:39.927Z,19.80
2019-04-21T17:29:24.867Z,20.50
2019-04-21T17:31:55.328Z,20.70
2019-04-21T17:34:29.777Z,20.70
2019-04-21T17:37:12.793Z,20.50
2019-04-21T17:39:43.201Z,20.00
2019-04-21T17:42:24.215Z,19.70
2019-04-21T17:44:45.458Z,19.30
2019-04-21T17:47:31.618Z,19.00
2019-04-21T17:49:55.528Z,18.80
2019-04-21T17:52:45.944Z,18.50
2019-04-21T17:55:28.358Z,18.30
2019-04-21T17:58:15.089Z,18.10
2019-04-21T18:01:12.878Z,18.00
2019-04-21T18:05:56.248Z,17.50
2019-04-21T18:13:20.052Z,17.00
2019-04-21T18:20:55.072Z,16.60
2019-04-21T18:23:39.701Z,16.50
2019-04-21T18:33:40.844Z,16.20
2019-04-21T18:39:10.209Z,16.00
2019-04-21T18:42:02.472Z,15.90
2019-04-21T18:44:58.284Z,15.80
2019-04-21T18:49:48.075Z,15.60
2019-04-21T18:52:42.679Z,15.50
2019-04-21T18:55:09.649Z,15.40
2019-04-21T19:00:24.426Z,15.30
2019-04-21T19:02:51.788Z,15.30
2019-04-21T19:05:24.186Z,15.30
2019-04-21T19:08:14.829Z,15.20
2019-04-21T19:16:08.324Z,15.00
2019-04-21T19:20:57.262Z,15.10
2019-04-21T19:26:15.097Z,15.30
2019-04-21T19:28:50.171Z,15.40
2019-04-21T19:31:39.912Z,15.40
2019-04-21T19:36:07.652Z,15.60
2019-04-21T19:38:55.919Z,15.60
2019-04-21T19:41:38.258Z,15.60
2019-04-21T19:44:14.247Z,15.50
2019-04-21T19:46:38.445Z,15.40
2019-04-21T19:51:46.171Z,15.40
2019-04-21T19:56:44.889Z,15.40
2019-04-21T19:59:20.020Z,15.30
2019-04-21T20:01:49.956Z,15.30
2019-04-21T20:04:29.811Z,15.30
2019-04-21T20:07:05.972Z,15.30
2019-04-21T20:09:46.190Z,15.20
2019-04-21T20:12:21.496Z,15.20
2019-04-21T20:15:10.796Z,15.20
2019-04-21T20:17:42.250Z,15.20
2019-04-21T20:20:09.002Z,15.20
2019-04-21T20:22:44.099Z,15.10
2019-04-21T20:25:18.111Z,15.10
2019-04-21T20:27:55.413Z,15.00
2019-04-21T20:33:20.217Z,15.00
2019-04-21T20:38:19.074Z,14.90
2019-04-21T20:40:51.108Z,14.80
2019-04-21T20:46:03.591Z,14.70
2019-04-21T20:48:27.270Z,14.70
2019-04-21T20:51:06.419Z,14.60
2019-04-21T20:53:36.079Z,14.60
2019-04-21T20:56:04.229Z,14.30
2019-04-21T21:03:57.927Z,14.10
2019-04-21T21:06:49.630Z,14.10
2019-04-21T21:12:13.423Z,14.20
2019-04-21T21:14:34.895Z,14.10
2019-04-21T21:17:04.810Z,14.20
2019-04-21T21:24:47.417Z,14.20
2019-04-21T21:27:14.251Z,14.20
2019-04-21T21:29:49.936Z,14.20
2019-04-21T21:32:24.155Z,14.10
2019-04-21T21:34:49.569Z,14.10
2019-04-21T21:40:04.023Z,13.90
2019-04-21T21:42:13.404Z,13.90
2019-04-21T21:44:49.521Z,13.80
2019-04-21T21:47:28.029Z,13.80
2019-04-21T21:50:00.758Z,13.70
2019-04-21T21:52:39.900Z,13.70
2019-04-21T21:54:55.940Z,13.60
2019-04-21T21:57:26.199Z,13.60
2019-04-21T22:00:02.839Z,13.60
2019-04-21T22:02:35.974Z,13.60
2019-04-21T22:05:09.212Z,13.60
2019-04-21T22:07:35.605Z,13.60
2019-04-21T22:12:50.532Z,13.70
2019-04-21T22:15:29.517Z,13.60
2019-04-21T22:18:16.844Z,13.70
2019-04-21T22:20:50.711Z,13.60
2019-04-21T22:25:37.956Z,13.50
2019-04-21T22:28:05.814Z,13.50
2019-04-21T22:35:48.889Z,13.50
2019-04-21T22:41:00.161Z,13.40
2019-04-21T22:43:29.229Z,13.30
2019-04-21T22:45:55.769Z,13.30
2019-04-21T22:48:28.995Z,13.30
2019-04-21T22:53:37.445Z,13.40
2019-04-21T23:01:11.275Z,13.20
2019-04-21T23:11:34.940Z,13.10
2019-04-21T23:14:04.412Z,13.10
2019-04-21T23:19:24.022Z,13.10
2019-04-21T23:21:59.583Z,13.00
2019-04-21T23:27:05.894Z,13.00
2019-04-21T23:32:13.223Z,12.90
2019-04-21T23:34:34.064Z,12.80
2019-04-21T23:37:06.615Z,12.70
2019-04-21T23:39:35.724Z,12.80
2019-04-21T23:42:05.891Z,12.70
2019-04-21T23:47:11.999Z,12.50
2019-04-21T23:49:57.666Z,12.40
2019-04-21T23:52:19.863Z,12.30
2019-04-21T23:57:40.913Z,12.20
